createdAt,value
2019-01-20T00:00:11.543Z,17.85
2019-01-20T00:03:16.650Z,20.95
2019-01-20T00:06:21.786Z,19.42
2019-01-20T00:09:27.902Z,18.60
2019-01-20T00:12:33.023Z,18.25
2019-01-20T00:15:38.210Z,21.15
2019-01-20T00:18:43.327Z,18.85
2019-01-20T00:21:48.467Z,20.35
2019-01-20T00:24:53.610Z,20.75
2019-01-20T00:27:58.634Z,18.98
2019-01-20T00:31:03.763Z,17.15
2019-01-20T00:34:08.737Z,18.00
2019-01-20T00:37:13.924Z,23.80
2019-01-20T00:40:19.080Z,20.17
2019-01-20T00:43:24.178Z,18.90
2019-01-20T00:46:29.318Z,18.20
2019-01-20T00:49:34.347Z,21.55
2019-01-20T00:52:39.487Z,17.65
2019-01-20T00:55:44.616Z,18.98
2019-01-20T00:58:49.747Z,22.82
2019-01-20T01:01:54.811Z,16.85
2019-01-20T01:04:59.952Z,20.15
2019-01-20T01:08:05.368Z,23.45
2019-01-20T01:11:10.497Z,20.80
2019-01-20T01:14:15.753Z,18.80
2019-01-20T01:17:20.895Z,19.00
2019-01-20T01:20:26.021Z,17.02
2019-01-20T01:23:34.398Z,19.60
2019-01-20T01:26:39.508Z,17.52
2019-01-20T01:29:44.634Z,19.87
2019-01-20T01:32:50.058Z,19.65
2019-01-20T01:35:55.115Z,21.70
2019-01-20T01:39:00.508Z,17.90
2019-01-20T01:42:05.620Z,22.22
2019-01-20T01:45:13.736Z,17.70
2019-01-20T01:48:18.807Z,18.65
2019-01-20T01:51:23.915Z,16.25
2019-01-20T01:54:28.951Z,20.97
2019-01-20T01:57:33.916Z,20.02
2019-01-20T02:00:38.974Z,22.30
2019-01-20T02:03:44.038Z,22.65
2019-01-20T02:06:49.077Z,19.05
2019-01-20T02:09:54.984Z,19.05
2019-01-20T02:13:00.095Z,21.60
2019-01-20T02:16:06.019Z,23.22
2019-01-20T02:19:11.059Z,17.73
2019-01-20T02:22:16.196Z,18.00
2019-01-20T02:25:21.319Z,17.65
2019-01-20T02:28:26.367Z,19.67
2019-01-20T02:31:31.412Z,17.73
2019-01-20T02:34:36.391Z,21.60
2019-01-20T02:37:41.539Z,20.02
2019-01-20T02:40:46.671Z,17.87
2019-01-20T02:43:51.732Z,18.35
2019-01-20T02:46:56.843Z,15.53
2019-01-20T02:50:01.879Z,16.37
2019-01-20T02:53:07.094Z,18.45
2019-01-20T02:56:12.188Z,16.90
2019-01-20T02:59:17.292Z,16.00
2019-01-20T03:02:22.420Z,15.50
2019-01-20T03:05:27.531Z,19.42
2019-01-20T03:08:32.587Z,21.52
2019-01-20T03:11:37.720Z,19.15
2019-01-20T03:14:42.760Z,21.73
2019-01-20T03:17:47.899Z,18.45
2019-01-20T03:20:52.948Z,19.80
2019-01-20T03:23:58.057Z,19.07
2019-01-20T03:27:03.160Z,19.73
2019-01-20T03:30:13.892Z,16.05
2019-01-20T03:33:19.092Z,19.57
2019-01-20T03:36:24.296Z,21.97
2019-01-20T03:39:29.456Z,17.05
2019-01-20T03:42:34.482Z,19.00
2019-01-20T03:45:39.614Z,18.12
2019-01-20T03:48:44.703Z,16.95
2019-01-20T03:51:49.837Z,15.90
2019-01-20T03:54:54.960Z,20.68
2019-01-20T03:58:00.071Z,19.55
2019-01-20T04:01:05.271Z,18.45
2019-01-20T04:04:10.411Z,27.70
2019-01-20T04:07:15.510Z,18.20
2019-01-20T04:10:20.647Z,18.17
2019-01-20T04:13:25.771Z,18.70
2019-01-20T04:16:30.812Z,19.92
2019-01-20T04:19:35.938Z,23.12
2019-01-20T04:22:41.450Z,19.20
2019-01-20T04:25:48.330Z,18.67
2019-01-20T04:28:53.438Z,20.35
2019-01-20T04:31:58.475Z,21.62
2019-01-20T04:35:03.583Z,20.90
2019-01-20T04:38:08.751Z,24.12
2019-01-20T04:41:13.774Z,20.23
2019-01-20T04:44:18.816Z,23.32
2019-01-20T04:47:23.865Z,24.23
2019-01-20T04:50:28.984Z,19.35
2019-01-20T04:53:34.344Z,19.90
2019-01-20T04:56:39.399Z,18.65
2019-01-20T04:59:44.355Z,18.85
2019-01-20T05:02:49.568Z,20.80
2019-01-20T05:05:54.691Z,22.37
2019-01-20T05:08:59.746Z,24.67
2019-01-20T05:12:04.900Z,28.32
2019-01-20T05:15:14.979Z,20.52
2019-01-20T05:18:20.016Z,22.07
2019-01-20T05:21:25.083Z,21.95
2019-01-20T05:24:30.112Z,25.85
2019-01-20T05:27:35.155Z,22.67
2019-01-20T05:30:40.843Z,25.27
2019-01-20T05:33:45.928Z,27.17
2019-01-20T05:36:51.051Z,28.87
2019-01-20T05:39:56.104Z,26.50
2019-01-20T05:43:01.167Z,28.75
2019-01-20T05:46:06.297Z,24.52
2019-01-20T05:49:11.342Z,27.65
2019-01-20T05:52:16.377Z,24.10
2019-01-20T05:55:21.431Z,27.25
2019-01-20T05:58:26.526Z,24.02
2019-01-20T06:01:31.651Z,28.07
2019-01-20T06:04:36.603Z,24.57
2019-01-20T06:07:41.730Z,24.77
2019-01-20T06:10:46.836Z,26.10
2019-01-20T06:13:51.964Z,28.75
2019-01-20T06:16:57.072Z,25.25
2019-01-20T06:20:02.193Z,26.57
2019-01-20T06:23:07.302Z,25.52
2019-01-20T06:26:12.436Z,29.35
2019-01-20T06:29:17.554Z,33.08
2019-01-20T06:32:22.599Z,27.42
2019-01-20T06:35:27.736Z,30.50
2019-01-20T06:38:32.843Z,27.82
2019-01-20T06:41:37.899Z,25.92
2019-01-20T06:44:43.301Z,24.10
2019-01-20T06:47:48.597Z,28.55
2019-01-20T06:50:53.856Z,30.80
2019-01-20T06:53:59.809Z,27.25
2019-01-20T06:57:05.168Z,28.87
2019-01-20T07:00:13.465Z,27.58
2019-01-20T07:03:18.890Z,30.88
2019-01-20T07:06:24.228Z,30.80
2019-01-20T07:09:29.618Z,26.10
2019-01-20T07:12:35.128Z,26.05
2019-01-20T07:15:40.328Z,25.85
2019-01-20T07:18:45.772Z,33.53
2019-01-20T07:21:51.320Z,28.77
2019-01-20T07:24:56.699Z,32.13
2019-01-20T07:28:01.875Z,29.90
2019-01-20T07:31:07.471Z,33.05
2019-01-20T07:34:12.639Z,31.35
2019-01-20T07:37:18.230Z,29.07
2019-01-20T07:40:23.803Z,29.30
2019-01-20T07:43:29.114Z,31.85
2019-01-20T07:46:34.437Z,30.88
2019-01-20T07:49:39.820Z,30.27
2019-01-20T07:52:45.286Z,29.37
2019-01-20T07:55:51.016Z,30.30
2019-01-20T07:58:56.295Z,30.00
2019-01-20T08:02:01.395Z,35.33
2019-01-20T08:05:06.829Z,27.10
2019-01-20T08:08:11.961Z,29.35
2019-01-20T08:11:17.122Z,28.47
2019-01-20T08:14:22.243Z,33.20
2019-01-20T08:17:27.287Z,32.70
2019-01-20T08:20:32.413Z,32.48
2019-01-20T08:23:37.443Z,36.53
2019-01-20T08:26:42.595Z,32.95
2019-01-20T08:29:47.625Z,35.45
2019-01-20T08:32:52.751Z,31.45
2019-01-20T08:35:57.808Z,31.75
2019-01-20T08:39:03.055Z,35.83
2019-01-20T08:42:08.091Z,31.42
2019-01-20T08:45:57.496Z,32.30
2019-01-20T08:49:02.659Z,34.03
2019-01-20T08:52:07.767Z,32.73
2019-01-20T08:55:12.961Z,30.90
2019-01-20T08:58:18.075Z,29.57
2019-01-20T09:01:23.204Z,32.17
2019-01-20T09:04:28.254Z,40.00
2019-01-20T09:07:33.359Z,33.70
2019-01-20T09:10:38.400Z,28.87
2019-01-20T09:13:43.427Z,32.33
2019-01-20T09:16:48.567Z,28.55
2019-01-20T09:19:53.664Z,31.70
2019-01-20T09:22:58.698Z,32.60
2019-01-20T09:26:03.767Z,31.60
2019-01-20T09:29:08.895Z,29.27
2019-01-20T09:32:14.019Z,29.60
2019-01-20T09:35:19.328Z,31.65
2019-01-20T09:38:24.440Z,31.48
2019-01-20T09:41:29.564Z,32.88
2019-01-20T09:44:36.925Z,34.00
2019-01-20T09:47:41.911Z,32.78
2019-01-20T09:50:47.692Z,28.23
2019-01-20T09:53:53.483Z,31.02
2019-01-20T09:56:58.511Z,33.15
2019-01-20T10:00:05.471Z,30.77
2019-01-20T10:03:16.129Z,29.48
2019-01-20T10:06:17.761Z,33.55
2019-01-20T10:09:22.856Z,30.37
2019-01-20T10:12:27.967Z,30.75
2019-01-20T10:15:33.011Z,29.67
2019-01-20T10:18:38.071Z,31.35
2019-01-20T10:21:43.256Z,30.30
2019-01-20T10:24:48.414Z,31.02
2019-01-20T10:27:53.581Z,31.57
2019-01-20T10:30:58.850Z,32.53
2019-01-20T10:34:03.963Z,31.25
2019-01-20T10:37:09.297Z,28.60
2019-01-20T10:40:14.411Z,29.25
2019-01-20T10:43:19.463Z,29.72
2019-01-20T10:46:24.516Z,27.50
2019-01-20T10:49:29.624Z,25.17
2019-01-20T10:52:34.721Z,29.00
2019-01-20T10:55:39.760Z,27.87
2019-01-20T10:58:44.759Z,28.40
2019-01-20T11:01:49.963Z,25.40
2019-01-20T11:04:57.498Z,27.80
2019-01-20T11:08:01.897Z,26.23
2019-01-20T11:11:07.004Z,28.80
2019-01-20T11:14:12.140Z,28.45
2019-01-20T11:17:17.247Z,34.75
2019-01-20T11:20:22.599Z,28.77
2019-01-20T11:23:28.192Z,27.75
2019-01-20T11:26:33.391Z,28.52
2019-01-20T11:29:38.376Z,63.15
2019-01-20T11:32:43.479Z,28.10
2019-01-20T11:35:48.726Z,39.33
2019-01-20T11:38:53.784Z,31.40
2019-01-20T11:41:58.896Z,29.15
2019-01-20T11:45:05.440Z,25.85
2019-01-20T11:48:10.736Z,27.85
2019-01-20T11:51:15.851Z,36.30
2019-01-20T11:54:20.987Z,29.80
2019-01-20T11:57:26.288Z,28.38
2019-01-20T12:00:33.483Z,32.58
2019-01-20T12:03:38.528Z,27.52
2019-01-20T12:06:43.650Z,27.35
2019-01-20T12:09:48.895Z,31.25
2019-01-20T12:12:59.338Z,27.75
2019-01-20T12:16:04.483Z,26.25
2019-01-20T12:19:09.456Z,25.62
2019-01-20T12:22:14.457Z,21.52
2019-01-20T12:25:19.659Z,23.87
2019-01-20T12:28:24.907Z,33.02
2019-01-20T12:31:30.040Z,19.60
2019-01-20T12:34:35.072Z,22.67
2019-01-20T12:37:40.200Z,22.85
2019-01-20T12:40:47.243Z,24.00
2019-01-20T12:43:52.282Z,29.27
2019-01-20T12:46:57.341Z,23.70
2019-01-20T12:50:02.501Z,26.93
2019-01-20T12:53:07.554Z,55.08
2019-01-20T12:56:12.684Z,53.87
2019-01-20T12:59:17.739Z,26.63
2019-01-20T13:02:22.805Z,36.53
2019-01-20T13:05:27.919Z,26.50
2019-01-20T13:08:33.032Z,38.83
2019-01-20T13:11:38.144Z,26.65
2019-01-20T13:14:43.521Z,25.05
2019-01-20T13:17:48.691Z,31.00
2019-01-20T13:20:53.763Z,23.67
2019-01-20T13:23:58.794Z,28.83
2019-01-20T13:27:03.948Z,27.58
2019-01-20T13:30:12.737Z,28.07
2019-01-20T13:33:17.946Z,25.15
2019-01-20T13:36:23.009Z,30.12
2019-01-20T13:39:27.983Z,24.98
2019-01-20T13:42:33.044Z,26.12
2019-01-20T13:45:38.168Z,26.07
2019-01-20T13:48:43.303Z,27.30
2019-01-20T13:51:48.451Z,25.85
2019-01-20T13:54:53.487Z,27.82
2019-01-20T13:57:58.472Z,27.02
2019-01-20T14:01:03.583Z,23.27
2019-01-20T14:04:08.723Z,31.60
2019-01-20T14:07:13.851Z,26.70
2019-01-20T14:10:19.427Z,23.00
2019-01-20T14:13:24.807Z,24.72
2019-01-20T14:16:29.915Z,23.30
2019-01-20T14:19:34.902Z,23.80
2019-01-20T14:22:39.931Z,22.52
2019-01-20T14:25:45.895Z,26.37
2019-01-20T14:28:51.095Z,27.82
2019-01-20T14:31:56.138Z,29.60
2019-01-20T14:35:01.131Z,29.20
2019-01-20T14:38:06.224Z,23.55
2019-01-20T14:41:11.368Z,28.02
2019-01-20T14:44:16.535Z,32.10
2019-01-20T14:47:21.568Z,23.67
2019-01-20T14:50:26.871Z,29.15
2019-01-20T14:53:31.873Z,24.12
2019-01-20T14:56:36.967Z,25.25
2019-01-20T14:59:42.082Z,26.20
2019-01-20T15:02:47.182Z,30.10
2019-01-20T15:05:52.304Z,29.85
2019-01-20T15:08:57.344Z,31.57
2019-01-20T15:12:02.479Z,32.67
2019-01-20T15:15:09.065Z,27.32
2019-01-20T15:18:14.380Z,28.60
2019-01-20T15:21:19.483Z,30.88
2019-01-20T15:24:25.107Z,29.67
2019-01-20T15:27:30.167Z,30.43
2019-01-20T15:30:35.632Z,26.02
2019-01-20T15:33:40.741Z,31.30
2019-01-20T15:36:45.869Z,30.10
2019-01-20T15:39:50.974Z,29.87
2019-01-20T15:42:56.239Z,34.43
2019-01-20T15:46:01.287Z,34.45
2019-01-20T15:49:06.403Z,29.00
2019-01-20T15:52:11.520Z,30.32
2019-01-20T15:55:16.751Z,35.58
2019-01-20T15:58:21.804Z,40.23
2019-01-20T16:01:26.828Z,31.75
2019-01-20T16:04:31.882Z,30.45
2019-01-20T16:07:37.003Z,30.50
2019-01-20T16:10:42.145Z,29.07
2019-01-20T16:13:47.261Z,34.33
2019-01-20T16:16:52.396Z,30.27
2019-01-20T16:19:57.509Z,31.25
2019-01-20T16:23:03.782Z,31.30
2019-01-20T16:26:08.914Z,33.80
2019-01-20T16:29:14.027Z,33.75
2019-01-20T16:32:19.156Z,31.42
2019-01-20T16:35:25.292Z,31.40
2019-01-20T16:38:30.420Z,30.68
2019-01-20T16:41:35.469Z,30.88
2019-01-20T16:44:40.606Z,28.02
2019-01-20T16:47:45.807Z,31.20
2019-01-20T16:50:50.952Z,29.85
2019-01-20T16:53:56.094Z,30.85
2019-01-20T16:57:01.144Z,32.48
2019-01-20T17:00:08.591Z,28.40
2019-01-20T17:03:13.915Z,26.20
2019-01-20T17:06:19.047Z,31.00
2019-01-20T17:09:24.203Z,28.12
2019-01-20T17:12:29.342Z,30.92
2019-01-20T17:15:39.762Z,29.07
2019-01-20T17:18:43.247Z,31.75
2019-01-20T17:21:48.468Z,26.50
2019-01-20T17:24:53.587Z,30.25
2019-01-20T17:27:58.741Z,28.98
2019-01-20T17:31:04.963Z,29.92
2019-01-20T17:34:10.196Z,29.65
2019-01-20T17:37:15.617Z,32.98
2019-01-20T17:40:22.648Z,26.82
2019-01-20T17:43:27.808Z,25.82
2019-01-20T17:46:32.947Z,29.30
2019-01-20T17:49:38.074Z,24.23
2019-01-20T17:52:43.220Z,27.15
2019-01-20T17:55:48.435Z,24.67
2019-01-20T17:58:53.550Z,25.45
2019-01-20T18:01:58.673Z,25.20
2019-01-20T18:05:04.408Z,24.67
2019-01-20T18:08:09.531Z,24.67
2019-01-20T18:11:16.314Z,24.75
2019-01-20T18:14:22.744Z,25.95
2019-01-20T18:17:30.054Z,24.77
2019-01-20T18:20:37.012Z,36.17
2019-01-20T18:23:44.017Z,32.10
2019-01-20T18:26:49.536Z,36.33
2019-01-20T18:29:54.731Z,29.42
2019-01-20T18:33:00.037Z,29.55
2019-01-20T18:36:05.214Z,24.30
2019-01-20T18:39:10.507Z,26.00
2019-01-20T18:42:15.687Z,24.75
2019-01-20T18:45:22.975Z,40.25
2019-01-20T18:48:27.979Z,27.70
2019-01-20T18:51:33.160Z,22.87
2019-01-20T18:54:38.311Z,23.05
2019-01-20T18:57:43.440Z,23.67
2019-01-20T19:00:50.522Z,23.80
2019-01-20T19:03:55.739Z,22.13
2019-01-20T19:07:01.112Z,25.88
2019-01-20T19:10:07.039Z,26.73
2019-01-20T19:13:12.176Z,26.80
2019-01-20T19:16:17.378Z,22.73
2019-01-20T19:19:22.496Z,25.95
2019-01-20T19:22:27.620Z,24.12
2019-01-20T19:25:32.740Z,27.22
2019-01-20T19:28:37.799Z,31.05
2019-01-20T19:31:45.224Z,28.67
2019-01-20T19:34:50.364Z,27.45
2019-01-20T19:37:55.471Z,22.93
2019-01-20T19:41:00.701Z,24.82
2019-01-20T19:44:06.019Z,23.55
2019-01-20T19:47:11.159Z,24.65
2019-01-20T19:50:16.398Z,19.62
2019-01-20T19:53:21.596Z,22.80
2019-01-20T19:56:27.030Z,25.50
2019-01-20T19:59:32.563Z,26.07
2019-01-20T20:02:38.091Z,20.35
2019-01-20T20:05:43.276Z,29.92
2019-01-20T20:08:48.346Z,21.90
2019-01-20T20:11:53.399Z,22.70
2019-01-20T20:14:58.556Z,22.37
2019-01-20T20:18:03.803Z,26.77
2019-01-20T20:21:09.045Z,23.32
2019-01-20T20:24:14.080Z,22.48
2019-01-20T20:27:19.335Z,24.00
2019-01-20T20:30:37.675Z,24.43
2019-01-20T20:33:42.659Z,22.60
2019-01-20T20:36:47.731Z,30.00
2019-01-20T20:39:52.802Z,26.70
2019-01-20T20:42:58.179Z,31.50
2019-01-20T20:46:03.457Z,28.17
2019-01-20T20:49:08.797Z,24.85
2019-01-20T20:52:14.078Z,22.32
2019-01-20T20:55:19.411Z,26.55
2019-01-20T20:58:24.667Z,23.22
2019-01-20T21:01:30.025Z,21.07
2019-01-20T21:04:35.292Z,23.30
2019-01-20T21:07:40.399Z,20.55
2019-01-20T21:10:45.591Z,21.60
2019-01-20T21:13:50.694Z,22.77
2019-01-20T21:16:56.157Z,22.60
2019-01-20T21:20:01.173Z,20.27
2019-01-20T21:23:12.002Z,21.52
2019-01-20T21:26:14.736Z,22.40
2019-01-20T21:29:20.351Z,20.88
2019-01-20T21:32:25.939Z,23.80
2019-01-20T21:35:31.247Z,21.75
2019-01-20T21:38:36.359Z,20.43
2019-01-20T21:41:41.509Z,22.62
2019-01-20T21:44:46.502Z,23.77
2019-01-20T21:47:51.630Z,22.13
2019-01-20T21:50:56.665Z,24.18
2019-01-20T21:54:01.734Z,24.05
2019-01-20T21:57:06.843Z,24.80
2019-01-20T22:00:14.408Z,22.22
2019-01-20T22:03:19.543Z,20.40
2019-01-20T22:06:24.677Z,21.50
2019-01-20T22:09:29.816Z,24.92
2019-01-20T22:12:34.835Z,24.23
2019-01-20T22:15:39.971Z,21.77
2019-01-20T22:18:44.937Z,23.45
2019-01-20T22:21:50.055Z,22.65
2019-01-20T22:24:55.419Z,21.87
2019-01-20T22:28:00.600Z,20.65
2019-01-20T22:31:05.681Z,22.85
2019-01-20T22:34:10.783Z,24.98
2019-01-20T22:37:15.908Z,25.62
2019-01-20T22:40:21.030Z,22.25
2019-01-20T22:43:26.072Z,24.60
2019-01-20T22:46:31.123Z,23.75
2019-01-20T22:49:36.162Z,20.62
2019-01-20T22:52:41.388Z,22.00
2019-01-20T22:55:46.631Z,25.12
2019-01-20T22:58:51.655Z,25.60
2019-01-20T23:01:56.806Z,23.20
2019-01-20T23:05:01.837Z,25.75
2019-01-20T23:08:06.960Z,26.50
2019-01-20T23:11:12.063Z,26.00
2019-01-20T23:14:17.111Z,24.63
2019-01-20T23:17:22.200Z,26.45
2019-01-20T23:20:27.312Z,30.12
2019-01-20T23:23:32.411Z,27.02
2019-01-20T23:26:37.455Z,29.48
2019-01-20T23:29:42.431Z,27.10
2019-01-20T23:32:47.484Z,27.45
2019-01-20T23:35:52.621Z,25.05
2019-01-20T23:38:57.650Z,30.08
2019-01-20T23:42:02.737Z,29.40
2019-01-20T23:45:09.018Z,31.20
2019-01-20T23:48:14.072Z,29.00
2019-01-20T23:51:19.026Z,31.97
2019-01-20T23:54:24.063Z,32.95
2019-01-20T23:57:29.182Z,30.75
